sensor_id;sensor_type;location;lat;lon;timestamp;temperature;humidity
15900;DHT22;8048;50.644;6.184;2023-03-14T00:02:10;9.60;99.90
15900;DHT22;8048;50.644;6.184;2023-03-14T00:04:36;9.60;99.90
15900;DHT22;8048;50.644;6.184;2023-03-14T00:07:02;9.60;99.90
15900;DHT22;8048;50.644;6.184;2023-03-14T00:09:27;9.60;99.90
15900;DHT22;8048;50.644;6.184;2023-03-14T00:11:55;9.60;99.90
15900;DHT22;8048;50.644;6.184;2023-03-14T00:14:21;9.60;99.90
15900;DHT22;8048;50.644;6.184;2023-03-14T00:16:46;9.60;99.90
15900;DHT22;8048;50.644;6.184;2023-03-14T00:19:12;9.60;99.90
15900;DHT22;8048;50.644;6.184;2023-03-14T00:21:37;9.60;99.90
15900;DHT22;8048;50.644;6.184;2023-03-14T00:24:03;9.60;99.90
15900;DHT22;8048;50.644;6.184;2023-03-14T00:26:29;9.60;99.90
15900;DHT22;8048;50.644;6.184;2023-03-14T00:28:55;9.60;99.90
15900;DHT22;8048;50.644;6.184;2023-03-14T00:31:20;9.60;99.90
15900;DHT22;8048;50.644;6.184;2023-03-14T00:33:46;9.60;99.90
15900;DHT22;8048;50.644;6.184;2023-03-14T00:36:15;9.50;99.90
15900;DHT22;8048;50.644;6.184;2023-03-14T00:38:42;9.50;99.90
15900;DHT22;8048;50.644;6.184;2023-03-14T00:41:11;9.30;99.90
15900;DHT22;8048;50.644;6.184;2023-03-14T00:43:37;9.00;99.90
15900;DHT22;8048;50.644;6.184;2023-03-14T00:46:03;8.70;99.90
15900;DHT22;8048;50.644;6.184;2023-03-14T00:48:29;8.40;99.90
15900;DHT22;8048;50.644;6.184;2023-03-14T00:50:55;8.20;99.90
15900;DHT22;8048;50.644;6.184;2023-03-14T00:53:20;8.00;99.90
15900;DHT22;8048;50.644;6.184;2023-03-14T00:55:46;7.90;99.90
15900;DHT22;8048;50.644;6.184;2023-03-14T00:58:13;7.90;99.90
15900;DHT22;8048;50.644;6.184;2023-03-14T01:00:39;7.90;99.90
15900;DHT22;8048;50.644;6.184;2023-03-14T01:03:06;7.90;99.90
15900;DHT22;8048;50.644;6.184;2023-03-14T01:05:31;7.90;99.90
15900;DHT22;8048;50.644;6.184;2023-03-14T01:07:57;7.90;99.90
15900;DHT22;8048;50.644;6.184;2023-03-14T01:10:24;7.80;99.90
15900;DHT22;8048;50.644;6.184;2023-03-14T01:12:49;7.80;99.90
15900;DHT22;8048;50.644;6.184;2023-03-14T01:15:15;7.80;99.90
15900;DHT22;8048;50.644;6.184;2023-03-14T01:17:41;7.90;99.90
15900;DHT22;8048;50.644;6.184;2023-03-14T01:20:09;7.90;99.90
15900;DHT22;8048;50.644;6.184;2023-03-14T01:22:36;7.90;99.90
15900;DHT22;8048;50.644;6.184;2023-03-14T01:25:04;7.90;99.90
15900;DHT22;8048;50.644;6.184;2023-03-14T01:27:30;7.90;99.90
15900;DHT22;8048;50.644;6.184;2023-03-14T01:29:55;7.80;99.90
15900;DHT22;8048;50.644;6.184;2023-03-14T01:32:21;7.80;99.90
15900;DHT22;8048;50.644;6.184;2023-03-14T01:34:46;7.80;99.90
15900;DHT22;8048;50.644;6.184;2023-03-14T01:37:12;7.90;99.90
15900;DHT22;8048;50.644;6.184;2023-03-14T01:39:38;7.90;99.90
15900;DHT22;8048;50.644;6.184;2023-03-14T01:42:03;7.90;99.90
15900;DHT22;8048;50.644;6.184;2023-03-14T01:44:47;7.90;99.90
15900;DHT22;8048;50.644;6.184;2023-03-14T01:47:13;8.00;99.90
15900;DHT22;8048;50.644;6.184;2023-03-14T01:49:38;8.00;99.90
15900;DHT22;8048;50.644;6.184;2023-03-14T01:52:14;8.00;99.90
15900;DHT22;8048;50.644;6.184;2023-03-14T01:54:47;7.90;99.90
15900;DHT22;8048;50.644;6.184;2023-03-14T01:57:22;8.00;99.90
15900;DHT22;8048;50.644;6.184;2023-03-14T02:02:24;8.00;99.90
15900;DHT22;8048;50.644;6.184;2023-03-14T02:04:52;8.00;99.90
15900;DHT22;8048;50.644;6.184;2023-03-14T02:07:25;7.90;99.90
15900;DHT22;8048;50.644;6.184;2023-03-14T02:09:56;7.90;99.90
15900;DHT22;8048;50.644;6.184;2023-03-14T02:12:22;8.00;99.90
15900;DHT22;8048;50.644;6.184;2023-03-14T02:14:48;8.00;99.90
15900;DHT22;8048;50.644;6.184;2023-03-14T02:17:16;8.00;99.90
15900;DHT22;8048;50.644;6.184;2023-03-14T02:22:33;8.00;99.90
15900;DHT22;8048;50.644;6.184;2023-03-14T02:25:08;8.00;99.90
15900;DHT22;8048;50.644;6.184;2023-03-14T02:27:36;8.10;99.90
15900;DHT22;8048;50.644;6.184;2023-03-14T02:30:12;8.10;99.90
15900;DHT22;8048;50.644;6.184;2023-03-14T02:32:41;8.10;99.90
15900;DHT22;8048;50.644;6.184;2023-03-14T02:35:12;8.10;99.90
15900;DHT22;8048;50.644;6.184;2023-03-14T02:38:07;8.10;99.90
15900;DHT22;8048;50.644;6.184;2023-03-14T02:40:28;8.10;99.90
15900;DHT22;8048;50.644;6.184;2023-03-14T02:42:54;8.20;99.90
15900;DHT22;8048;50.644;6.184;2023-03-14T02:47:58;8.10;99.90
15900;DHT22;8048;50.644;6.184;2023-03-14T02:50:26;8.20;99.90
15900;DHT22;8048;50.644;6.184;2023-03-14T02:52:54;8.20;99.90
15900;DHT22;8048;50.644;6.184;2023-03-14T02:55:21;8.20;99.90
15900;DHT22;8048;50.644;6.184;2023-03-14T02:57:47;8.20;99.90
15900;DHT22;8048;50.644;6.184;2023-03-14T03:00:13;8.10;99.90
15900;DHT22;8048;50.644;6.184;2023-03-14T03:02:38;8.10;99.90
15900;DHT22;8048;50.644;6.184;2023-03-14T03:05:04;8.10;99.90
15900;DHT22;8048;50.644;6.184;2023-03-14T03:07:30;8.10;99.90
15900;DHT22;8048;50.644;6.184;2023-03-14T03:09:55;8.10;99.90
15900;DHT22;8048;50.644;6.184;2023-03-14T03:12:21;8.10;99.90
15900;DHT22;8048;50.644;6.184;2023-03-14T03:14:47;8.10;99.90
15900;DHT22;8048;50.644;6.184;2023-03-14T03:17:12;8.10;99.90
15900;DHT22;8048;50.644;6.184;2023-03-14T03:19:38;8.10;99.90
15900;DHT22;8048;50.644;6.184;2023-03-14T03:22:03;8.10;99.90
15900;DHT22;8048;50.644;6.184;2023-03-14T03:24:29;8.10;99.90
15900;DHT22;8048;50.644;6.184;2023-03-14T03:26:54;8.00;99.90
15900;DHT22;8048;50.644;6.184;2023-03-14T03:29:20;8.00;99.90
15900;DHT22;8048;50.644;6.184;2023-03-14T03:31:46;8.10;99.90
15900;DHT22;8048;50.644;6.184;2023-03-14T03:34:12;8.10;99.90
15900;DHT22;8048;50.644;6.184;2023-03-14T03:36:38;8.10;99.90
15900;DHT22;8048;50.644;6.184;2023-03-14T03:39:04;8.10;99.90
15900;DHT22;8048;50.644;6.184;2023-03-14T03:41:30;8.10;99.90
15900;DHT22;8048;50.644;6.184;2023-03-14T03:43:56;8.10;99.90
15900;DHT22;8048;50.644;6.184;2023-03-14T03:46:21;8.10;99.90
15900;DHT22;8048;50.644;6.184;2023-03-14T03:48:47;8.00;99.90
15900;DHT22;8048;50.644;6.184;2023-03-14T03:51:14;8.00;99.90
15900;DHT22;8048;50.644;6.184;2023-03-14T03:53:40;8.00;99.90
15900;DHT22;8048;50.644;6.184;2023-03-14T03:56:06;7.90;99.90
15900;DHT22;8048;50.644;6.184;2023-03-14T03:58:32;8.00;99.90
15900;DHT22;8048;50.644;6.184;2023-03-14T04:00:57;8.00;99.90
15900;DHT22;8048;50.644;6.184;2023-03-14T04:03:23;8.00;99.90
15900;DHT22;8048;50.644;6.184;2023-03-14T04:05:59;8.00;99.90
15900;DHT22;8048;50.644;6.184;2023-03-14T04:08:25;8.00;99.90
15900;DHT22;8048;50.644;6.184;2023-03-14T04:10:55;8.00;99.90
15900;DHT22;8048;50.644;6.184;2023-03-14T04:13:21;8.00;99.90
15900;DHT22;8048;50.644;6.184;2023-03-14T04:15:46;8.00;99.90
15900;DHT22;8048;50.644;6.184;2023-03-14T04:18:12;8.00;99.90
15900;DHT22;8048;50.644;6.184;2023-03-14T04:20:37;7.90;99.90
15900;DHT22;8048;50.644;6.184;2023-03-14T04:23:03;8.00;99.90
15900;DHT22;8048;50.644;6.184;2023-03-14T04:25:28;7.90;99.90
15900;DHT22;8048;50.644;6.184;2023-03-14T04:27:54;7.90;99.90
15900;DHT22;8048;50.644;6.184;2023-03-14T04:30:19;7.90;99.90
15900;DHT22;8048;50.644;6.184;2023-03-14T04:32:45;7.90;99.90
15900;DHT22;8048;50.644;6.184;2023-03-14T04:35:11;7.90;99.90
15900;DHT22;8048;50.644;6.184;2023-03-14T04:37:36;7.90;99.90
15900;DHT22;8048;50.644;6.184;2023-03-14T04:40:02;7.90;99.90
15900;DHT22;8048;50.644;6.184;2023-03-14T04:42:31;7.90;99.90
15900;DHT22;8048;50.644;6.184;2023-03-14T04:44:57;7.80;99.90
15900;DHT22;8048;50.644;6.184;2023-03-14T04:47:22;7.80;99.90
15900;DHT22;8048;50.644;6.184;2023-03-14T04:49:48;7.80;99.90
15900;DHT22;8048;50.644;6.184;2023-03-14T04:52:13;7.80;99.90
15900;DHT22;8048;50.644;6.184;2023-03-14T04:54:39;7.80;99.90
15900;DHT22;8048;50.644;6.184;2023-03-14T04:57:04;7.80;99.90
15900;DHT22;8048;50.644;6.184;2023-03-14T04:59:30;7.90;99.90
15900;DHT22;8048;50.644;6.184;2023-03-14T05:01:55;7.90;99.90
15900;DHT22;8048;50.644;6.184;2023-03-14T05:04:21;7.80;99.90
15900;DHT22;8048;50.644;6.184;2023-03-14T05:06:46;7.80;99.90
15900;DHT22;8048;50.644;6.184;2023-03-14T05:09:12;7.80;99.90
15900;DHT22;8048;50.644;6.184;2023-03-14T05:11:37;7.80;99.90
15900;DHT22;8048;50.644;6.184;2023-03-14T05:14:03;7.80;99.90
15900;DHT22;8048;50.644;6.184;2023-03-14T05:16:28;7.90;99.90
15900;DHT22;8048;50.644;6.184;2023-03-14T05:18:54;7.80;99.90
15900;DHT22;8048;50.644;6.184;2023-03-14T05:21:19;7.80;99.90
15900;DHT22;8048;50.644;6.184;2023-03-14T05:23:45;7.80;99.90
15900;DHT22;8048;50.644;6.184;2023-03-14T05:26:10;7.80;99.90
15900;DHT22;8048;50.644;6.184;2023-03-14T05:28:36;7.80;99.90
15900;DHT22;8048;50.644;6.184;2023-03-14T05:31:06;7.70;99.90
15900;DHT22;8048;50.644;6.184;2023-03-14T05:33:32;7.70;99.90
15900;DHT22;8048;50.644;6.184;2023-03-14T05:35:57;7.70;99.90
15900;DHT22;8048;50.644;6.184;2023-03-14T05:38:23;7.70;99.90
15900;DHT22;8048;50.644;6.184;2023-03-14T05:40:48;7.60;99.90
15900;DHT22;8048;50.644;6.184;2023-03-14T05:43:14;7.70;99.90
15900;DHT22;8048;50.644;6.184;2023-03-14T05:45:40;7.70;99.90
15900;DHT22;8048;50.644;6.184;2023-03-14T05:48:06;7.70;99.90
15900;DHT22;8048;50.644;6.184;2023-03-14T05:50:32;7.80;99.90
15900;DHT22;8048;50.644;6.184;2023-03-14T05:52:57;7.80;99.90
15900;DHT22;8048;50.644;6.184;2023-03-14T05:55:23;7.90;99.90
15900;DHT22;8048;50.644;6.184;2023-03-14T05:57:49;7.80;99.90
15900;DHT22;8048;50.644;6.184;2023-03-14T06:00:15;7.90;99.90
15900;DHT22;8048;50.644;6.184;2023-03-14T06:02:40;7.90;99.90
15900;DHT22;8048;50.644;6.184;2023-03-14T06:05:07;7.90;99.90
15900;DHT22;8048;50.644;6.184;2023-03-14T06:07:32;7.90;99.90
15900;DHT22;8048;50.644;6.184;2023-03-14T06:09:58;7.90;99.90
15900;DHT22;8048;50.644;6.184;2023-03-14T06:12:24;7.90;99.90
15900;DHT22;8048;50.644;6.184;2023-03-14T06:14:49;7.90;99.90
15900;DHT22;8048;50.644;6.184;2023-03-14T06:17:15;7.90;99.90
15900;DHT22;8048;50.644;6.184;2023-03-14T06:19:40;8.00;99.90
15900;DHT22;8048;50.644;6.184;2023-03-14T06:22:06;8.00;99.90
15900;DHT22;8048;50.644;6.184;2023-03-14T06:24:31;8.00;99.90
15900;DHT22;8048;50.644;6.184;2023-03-14T06:26:57;8.00;99.90
15900;DHT22;8048;50.644;6.184;2023-03-14T06:29:23;8.00;99.90
15900;DHT22;8048;50.644;6.184;2023-03-14T06:31:48;8.10;99.90
15900;DHT22;8048;50.644;6.184;2023-03-14T06:34:14;8.00;99.90
15900;DHT22;8048;50.644;6.184;2023-03-14T06:36:39;8.10;99.90
15900;DHT22;8048;50.644;6.184;2023-03-14T06:39:05;8.10;99.90
15900;DHT22;8048;50.644;6.184;2023-03-14T06:41:30;8.10;99.90
15900;DHT22;8048;50.644;6.184;2023-03-14T06:43:56;8.10;99.90
15900;DHT22;8048;50.644;6.184;2023-03-14T06:46:21;8.10;99.90
15900;DHT22;8048;50.644;6.184;2023-03-14T06:48:47;8.10;99.90
15900;DHT22;8048;50.644;6.184;2023-03-14T06:51:12;8.20;99.90
15900;DHT22;8048;50.644;6.184;2023-03-14T06:53:38;8.10;99.90
15900;DHT22;8048;50.644;6.184;2023-03-14T06:56:04;8.20;99.90
15900;DHT22;8048;50.644;6.184;2023-03-14T06:58:29;8.20;99.90
15900;DHT22;8048;50.644;6.184;2023-03-14T07:00:55;8.20;99.90
15900;DHT22;8048;50.644;6.184;2023-03-14T07:03:22;8.20;99.90
15900;DHT22;8048;50.644;6.184;2023-03-14T07:05:48;8.20;99.90
15900;DHT22;8048;50.644;6.184;2023-03-14T07:08:13;8.20;99.90
15900;DHT22;8048;50.644;6.184;2023-03-14T07:10:39;8.30;99.90
15900;DHT22;8048;50.644;6.184;2023-03-14T07:13:05;8.30;99.90
15900;DHT22;8048;50.644;6.184;2023-03-14T07:15:30;8.30;99.90
15900;DHT22;8048;50.644;6.184;2023-03-14T07:17:56;8.30;99.90
15900;DHT22;8048;50.644;6.184;2023-03-14T07:20:22;8.30;99.90
15900;DHT22;8048;50.644;6.184;2023-03-14T07:22:48;8.30;99.90
15900;DHT22;8048;50.644;6.184;2023-03-14T07:25:14;8.30;99.90
15900;DHT22;8048;50.644;6.184;2023-03-14T07:27:42;8.30;99.90
15900;DHT22;8048;50.644;6.184;2023-03-14T07:30:08;8.30;99.90
15900;DHT22;8048;50.644;6.184;2023-03-14T07:32:34;8.30;99.90
15900;DHT22;8048;50.644;6.184;2023-03-14T07:34:59;8.40;99.90
15900;DHT22;8048;50.644;6.184;2023-03-14T07:37:25;8.40;99.90
15900;DHT22;8048;50.644;6.184;2023-03-14T07:39:50;8.50;99.90
15900;DHT22;8048;50.644;6.184;2023-03-14T07:42:16;8.50;99.90
15900;DHT22;8048;50.644;6.184;2023-03-14T07:44:41;8.50;99.90
15900;DHT22;8048;50.644;6.184;2023-03-14T07:47:07;8.50;99.90
15900;DHT22;8048;50.644;6.184;2023-03-14T07:49:32;8.50;99.90
15900;DHT22;8048;50.644;6.184;2023-03-14T07:51:58;8.50;99.90
15900;DHT22;8048;50.644;6.184;2023-03-14T07:54:24;8.60;99.90
15900;DHT22;8048;50.644;6.184;2023-03-14T07:56:50;8.60;99.90
15900;DHT22;8048;50.644;6.184;2023-03-14T07:59:17;8.60;99.90
15900;DHT22;8048;50.644;6.184;2023-03-14T08:01:42;8.70;99.90
15900;DHT22;8048;50.644;6.184;2023-03-14T08:04:08;8.70;99.90
15900;DHT22;8048;50.644;6.184;2023-03-14T08:06:35;8.70;99.90
15900;DHT22;8048;50.644;6.184;2023-03-14T08:09:02;8.70;99.90
15900;DHT22;8048;50.644;6.184;2023-03-14T08:11:28;8.80;99.90
15900;DHT22;8048;50.644;6.184;2023-03-14T08:13:53;8.70;99.90
15900;DHT22;8048;50.644;6.184;2023-03-14T08:16:19;8.70;99.90
15900;DHT22;8048;50.644;6.184;2023-03-14T08:18:45;8.80;99.90
15900;DHT22;8048;50.644;6.184;2023-03-14T08:21:11;8.80;99.90
15900;DHT22;8048;50.644;6.184;2023-03-14T08:23:37;8.80;99.90
15900;DHT22;8048;50.644;6.184;2023-03-14T08:26:03;8.70;99.90
15900;DHT22;8048;50.644;6.184;2023-03-14T08:28:28;8.80;99.90
15900;DHT22;8048;50.644;6.184;2023-03-14T08:30:56;8.70;99.90
15900;DHT22;8048;50.644;6.184;2023-03-14T08:33:22;8.70;99.90
15900;DHT22;8048;50.644;6.184;2023-03-14T08:35:48;8.70;99.90
15900;DHT22;8048;50.644;6.184;2023-03-14T08:38:16;8.70;99.90
15900;DHT22;8048;50.644;6.184;2023-03-14T08:40:41;8.70;99.90
15900;DHT22;8048;50.644;6.184;2023-03-14T08:43:07;8.70;99.90
15900;DHT22;8048;50.644;6.184;2023-03-14T08:45:32;8.70;99.90
15900;DHT22;8048;50.644;6.184;2023-03-14T08:47:58;8.70;99.90
15900;DHT22;8048;50.644;6.184;2023-03-14T08:50:24;8.70;99.90
15900;DHT22;8048;50.644;6.184;2023-03-14T08:52:49;8.70;99.90
15900;DHT22;8048;50.644;6.184;2023-03-14T08:55:15;8.70;99.90
15900;DHT22;8048;50.644;6.184;2023-03-14T08:57:41;8.80;99.90
15900;DHT22;8048;50.644;6.184;2023-03-14T09:00:08;8.70;99.90
15900;DHT22;8048;50.644;6.184;2023-03-14T09:02:37;8.70;99.90
15900;DHT22;8048;50.644;6.184;2023-03-14T09:05:03;8.50;99.90
15900;DHT22;8048;50.644;6.184;2023-03-14T09:07:28;8.30;99.90
15900;DHT22;8048;50.644;6.184;2023-03-14T09:09:54;8.30;99.90
15900;DHT22;8048;50.644;6.184;2023-03-14T09:12:19;8.10;99.90
15900;DHT22;8048;50.644;6.184;2023-03-14T09:14:45;8.00;99.90
15900;DHT22;8048;50.644;6.184;2023-03-14T09:17:10;7.80;99.90
15900;DHT22;8048;50.644;6.184;2023-03-14T09:19:36;7.60;99.90
15900;DHT22;8048;50.644;6.184;2023-03-14T09:22:02;7.50;99.90
15900;DHT22;8048;50.644;6.184;2023-03-14T09:24:28;7.40;99.90
15900;DHT22;8048;50.644;6.184;2023-03-14T09:26:55;7.30;99.90
15900;DHT22;8048;50.644;6.184;2023-03-14T09:29:21;7.20;99.90
15900;DHT22;8048;50.644;6.184;2023-03-14T09:31:46;7.20;99.90
15900;DHT22;8048;50.644;6.184;2023-03-14T09:34:12;7.20;99.90
15900;DHT22;8048;50.644;6.184;2023-03-14T09:36:37;7.00;99.90
15900;DHT22;8048;50.644;6.184;2023-03-14T09:39:05;7.00;99.90
15900;DHT22;8048;50.644;6.184;2023-03-14T09:41:34;6.90;99.90
15900;DHT22;8048;50.644;6.184;2023-03-14T09:46:35;6.80;99.90
15900;DHT22;8048;50.644;6.184;2023-03-14T09:49:02;6.70;99.90
15900;DHT22;8048;50.644;6.184;2023-03-14T09:51:31;6.60;99.90
15900;DHT22;8048;50.644;6.184;2023-03-14T09:53:57;6.60;99.90
15900;DHT22;8048;50.644;6.184;2023-03-14T09:56:28;6.60;99.90
15900;DHT22;8048;50.644;6.184;2023-03-14T09:59:00;6.40;99.90
15900;DHT22;8048;50.644;6.184;2023-03-14T10:01:29;6.40;99.90
15900;DHT22;8048;50.644;6.184;2023-03-14T10:03:56;6.50;99.90
15900;DHT22;8048;50.644;6.184;2023-03-14T10:06:27;6.40;99.90
15900;DHT22;8048;50.644;6.184;2023-03-14T10:08:54;6.50;99.90
15900;DHT22;8048;50.644;6.184;2023-03-14T10:11:20;6.50;99.90
15900;DHT22;8048;50.644;6.184;2023-03-14T10:14:15;6.50;99.90
15900;DHT22;8048;50.644;6.184;2023-03-14T10:16:53;6.60;99.90
15900;DHT22;8048;50.644;6.184;2023-03-14T10:19:19;6.60;99.90
15900;DHT22;8048;50.644;6.184;2023-03-14T10:21:50;6.70;99.90
15900;DHT22;8048;50.644;6.184;2023-03-14T10:24:27;6.80;99.90
15900;DHT22;8048;50.644;6.184;2023-03-14T10:26:58;6.80;99.90
15900;DHT22;8048;50.644;6.184;2023-03-14T10:29:24;6.80;99.90
15900;DHT22;8048;50.644;6.184;2023-03-14T10:31:54;6.80;99.90
15900;DHT22;8048;50.644;6.184;2023-03-14T10:34:32;6.80;99.90
15900;DHT22;8048;50.644;6.184;2023-03-14T10:37:23;6.70;99.90
15900;DHT22;8048;50.644;6.184;2023-03-14T10:39:53;6.70;99.90
15900;DHT22;8048;50.644;6.184;2023-03-14T10:42:19;6.70;99.90
15900;DHT22;8048;50.644;6.184;2023-03-14T10:44:49;6.50;99.90
15900;DHT22;8048;50.644;6.184;2023-03-14T10:47:22;6.50;99.90
15900;DHT22;8048;50.644;6.184;2023-03-14T10:49:48;6.40;99.90
15900;DHT22;8048;50.644;6.184;2023-03-14T10:54:39;6.40;99.90
15900;DHT22;8048;50.644;6.184;2023-03-14T10:57:05;6.30;99.90
15900;DHT22;8048;50.644;6.184;2023-03-14T10:59:36;6.30;99.90
15900;DHT22;8048;50.644;6.184;2023-03-14T11:24:19;6.30;99.90
15900;DHT22;8048;50.644;6.184;2023-03-14T11:35:05;6.20;99.90
15900;DHT22;8048;50.644;6.184;2023-03-14T11:37:36;6.10;99.90
15900;DHT22;8048;50.644;6.184;2023-03-14T11:40:23;6.00;99.90
15900;DHT22;8048;50.644;6.184;2023-03-14T11:43:20;5.80;99.90
15900;DHT22;8048;50.644;6.184;2023-03-14T11:45:45;5.80;99.90
15900;DHT22;8048;50.644;6.184;2023-03-14T11:48:38;5.70;99.90
15900;DHT22;8048;50.644;6.184;2023-03-14T11:51:23;5.70;99.90
15900;DHT22;8048;50.644;6.184;2023-03-14T11:56:46;5.60;99.90
15900;DHT22;8048;50.644;6.184;2023-03-14T11:59:23;5.50;99.90
15900;DHT22;8048;50.644;6.184;2023-03-14T12:02:17;5.50;99.90
15900;DHT22;8048;50.644;6.184;2023-03-14T12:07:30;5.50;99.90
15900;DHT22;8048;50.644;6.184;2023-03-14T12:09:57;5.40;99.90
15900;DHT22;8048;50.644;6.184;2023-03-14T12:12:26;5.50;99.90
15900;DHT22;8048;50.644;6.184;2023-03-14T12:15:00;5.50;99.90
15900;DHT22;8048;50.644;6.184;2023-03-14T12:20:18;5.40;99.90
15900;DHT22;8048;50.644;6.184;2023-03-14T12:22:45;5.40;99.90
15900;DHT22;8048;50.644;6.184;2023-03-14T12:25:15;5.30;99.90
15900;DHT22;8048;50.644;6.184;2023-03-14T12:30:38;5.30;99.90
15900;DHT22;8048;50.644;6.184;2023-03-14T12:35:36;5.30;99.90
15900;DHT22;8048;50.644;6.184;2023-03-14T12:38:17;5.30;99.90
15900;DHT22;8048;50.644;6.184;2023-03-14T12:41:11;5.30;99.90
15900;DHT22;8048;50.644;6.184;2023-03-14T12:43:38;5.30;99.90
15900;DHT22;8048;50.644;6.184;2023-03-14T12:46:23;5.30;99.90
15900;DHT22;8048;50.644;6.184;2023-03-14T12:48:50;5.30;99.90
15900;DHT22;8048;50.644;6.184;2023-03-14T12:51:20;5.30;99.90
15900;DHT22;8048;50.644;6.184;2023-03-14T13:01:58;5.00;99.90
15900;DHT22;8048;50.644;6.184;2023-03-14T13:04:35;4.90;99.90
15900;DHT22;8048;50.644;6.184;2023-03-14T13:07:03;4.90;99.90
15900;DHT22;8048;50.644;6.184;2023-03-14T13:11:55;4.80;99.90
15900;DHT22;8048;50.644;6.184;2023-03-14T13:14:23;4.70;99.90
15900;DHT22;8048;50.644;6.184;2023-03-14T13:16:49;4.60;99.90
15900;DHT22;8048;50.644;6.184;2023-03-14T13:19:21;4.60;99.90
15900;DHT22;8048;50.644;6.184;2023-03-14T13:21:48;4.60;99.90
15900;DHT22;8048;50.644;6.184;2023-03-14T13:24:23;4.60;99.90
15900;DHT22;8048;50.644;6.184;2023-03-14T13:26:53;4.50;99.90
15900;DHT22;8048;50.644;6.184;2023-03-14T13:31:47;4.60;99.90
15900;DHT22;8048;50.644;6.184;2023-03-14T13:34:14;4.70;99.90
15900;DHT22;8048;50.644;6.184;2023-03-14T13:36:40;4.60;99.90
15900;DHT22;8048;50.644;6.184;2023-03-14T13:39:16;4.70;99.90
15900;DHT22;8048;50.644;6.184;2023-03-14T13:41:43;4.70;99.90
15900;DHT22;8048;50.644;6.184;2023-03-14T13:44:15;4.70;99.90
15900;DHT22;8048;50.644;6.184;2023-03-14T13:46:41;4.70;99.90
15900;DHT22;8048;50.644;6.184;2023-03-14T13:49:13;4.60;99.90
15900;DHT22;8048;50.644;6.184;2023-03-14T14:04:17;4.70;99.90
15900;DHT22;8048;50.644;6.184;2023-03-14T14:06:54;4.50;99.90
15900;DHT22;8048;50.644;6.184;2023-03-14T14:09:23;4.40;99.90
15900;DHT22;8048;50.644;6.184;2023-03-14T14:11:58;4.30;99.90
15900;DHT22;8048;50.644;6.184;2023-03-14T14:14:40;4.30;99.90
15900;DHT22;8048;50.644;6.184;2023-03-14T14:17:11;4.30;99.90
15900;DHT22;8048;50.644;6.184;2023-03-14T14:19:38;4.30;99.90
15900;DHT22;8048;50.644;6.184;2023-03-14T14:22:04;4.20;99.90
15900;DHT22;8048;50.644;6.184;2023-03-14T14:24:31;4.30;99.90
15900;DHT22;8048;50.644;6.184;2023-03-14T14:27:18;4.20;99.90
15900;DHT22;8048;50.644;6.184;2023-03-14T14:29:44;4.10;99.90
15900;DHT22;8048;50.644;6.184;2023-03-14T14:32:21;4.10;99.90
15900;DHT22;8048;50.644;6.184;2023-03-14T14:34:58;4.00;99.90
15900;DHT22;8048;50.644;6.184;2023-03-14T14:37:32;4.00;99.90
15900;DHT22;8048;50.644;6.184;2023-03-14T14:40:00;3.90;99.90
15900;DHT22;8048;50.644;6.184;2023-03-14T14:42:29;3.90;99.90
15900;DHT22;8048;50.644;6.184;2023-03-14T14:44:56;3.80;99.90
15900;DHT22;8048;50.644;6.184;2023-03-14T14:47:25;3.80;99.90
15900;DHT22;8048;50.644;6.184;2023-03-14T14:49:53;3.60;99.90
15900;DHT22;8048;50.644;6.184;2023-03-14T14:52:21;3.60;99.90
15900;DHT22;8048;50.644;6.184;2023-03-14T14:54:50;3.50;99.90
15900;DHT22;8048;50.644;6.184;2023-03-14T14:57:23;3.50;99.90
15900;DHT22;8048;50.644;6.184;2023-03-14T14:59:49;3.50;99.90
15900;DHT22;8048;50.644;6.184;2023-03-14T15:02:48;3.50;99.90
15900;DHT22;8048;50.644;6.184;2023-03-14T15:05:33;3.60;99.90
15900;DHT22;8048;50.644;6.184;2023-03-14T15:08:01;3.60;99.90
15900;DHT22;8048;50.644;6.184;2023-03-14T15:10:26;3.60;99.90
15900;DHT22;8048;50.644;6.184;2023-03-14T15:12:52;3.60;99.90
15900;DHT22;8048;50.644;6.184;2023-03-14T15:15:18;3.60;99.90
15900;DHT22;8048;50.644;6.184;2023-03-14T15:17:44;3.60;99.90
15900;DHT22;8048;50.644;6.184;2023-03-14T15:20:12;3.60;99.90
15900;DHT22;8048;50.644;6.184;2023-03-14T15:22:39;3.60;99.90
15900;DHT22;8048;50.644;6.184;2023-03-14T15:25:06;3.60;99.90
15900;DHT22;8048;50.644;6.184;2023-03-14T15:27:32;3.70;99.90
15900;DHT22;8048;50.644;6.184;2023-03-14T15:29:57;3.70;99.90
15900;DHT22;8048;50.644;6.184;2023-03-14T15:32:24;3.70;99.90
15900;DHT22;8048;50.644;6.184;2023-03-14T15:34:53;3.70;99.90
15900;DHT22;8048;50.644;6.184;2023-03-14T15:37:19;3.70;99.90
15900;DHT22;8048;50.644;6.184;2023-03-14T15:39:45;3.70;99.90
15900;DHT22;8048;50.644;6.184;2023-03-14T15:42:11;3.70;99.90
15900;DHT22;8048;50.644;6.184;2023-03-14T15:44:37;3.70;99.90
15900;DHT22;8048;50.644;6.184;2023-03-14T15:47:04;3.70;99.90
15900;DHT22;8048;50.644;6.184;2023-03-14T15:49:31;3.70;99.90
15900;DHT22;8048;50.644;6.184;2023-03-14T15:51:56;3.70;99.90
15900;DHT22;8048;50.644;6.184;2023-03-14T15:54:22;3.80;99.90
15900;DHT22;8048;50.644;6.184;2023-03-14T15:56:48;3.80;99.90
15900;DHT22;8048;50.644;6.184;2023-03-14T15:59:13;3.80;99.90
15900;DHT22;8048;50.644;6.184;2023-03-14T16:01:39;3.80;99.90
15900;DHT22;8048;50.644;6.184;2023-03-14T16:04:04;3.80;99.90
15900;DHT22;8048;50.644;6.184;2023-03-14T16:06:30;3.80;99.90
15900;DHT22;8048;50.644;6.184;2023-03-14T16:09:00;3.80;99.90
15900;DHT22;8048;50.644;6.184;2023-03-14T16:11:26;3.80;99.90
15900;DHT22;8048;50.644;6.184;2023-03-14T16:13:51;3.80;99.90
15900;DHT22;8048;50.644;6.184;2023-03-14T16:16:17;3.70;99.90
15900;DHT22;8048;50.644;6.184;2023-03-14T16:18:43;3.60;99.90
15900;DHT22;8048;50.644;6.184;2023-03-14T16:21:16;3.50;99.90
15900;DHT22;8048;50.644;6.184;2023-03-14T16:23:42;3.40;99.90
15900;DHT22;8048;50.644;6.184;2023-03-14T16:26:19;3.30;99.90
15900;DHT22;8048;50.644;6.184;2023-03-14T16:28:45;3.20;99.90
15900;DHT22;8048;50.644;6.184;2023-03-14T16:31:13;3.10;99.90
15900;DHT22;8048;50.644;6.184;2023-03-14T16:33:41;3.00;99.90
15900;DHT22;8048;50.644;6.184;2023-03-14T16:36:09;3.00;99.90
15900;DHT22;8048;50.644;6.184;2023-03-14T16:38:36;2.90;99.90
15900;DHT22;8048;50.644;6.184;2023-03-14T16:41:06;3.00;99.90
15900;DHT22;8048;50.644;6.184;2023-03-14T16:43:32;2.90;99.90
15900;DHT22;8048;50.644;6.184;2023-03-14T16:46:01;2.90;99.90
15900;DHT22;8048;50.644;6.184;2023-03-14T16:48:27;2.90;99.90
15900;DHT22;8048;50.644;6.184;2023-03-14T16:50:53;2.80;99.90
15900;DHT22;8048;50.644;6.184;2023-03-14T16:53:19;2.80;99.90
15900;DHT22;8048;50.644;6.184;2023-03-14T16:55:45;2.80;99.90
15900;DHT22;8048;50.644;6.184;2023-03-14T16:58:11;2.80;99.90
15900;DHT22;8048;50.644;6.184;2023-03-14T17:00:37;2.70;99.90
15900;DHT22;8048;50.644;6.184;2023-03-14T17:03:03;2.70;99.90
15900;DHT22;8048;50.644;6.184;2023-03-14T17:05:29;2.60;99.90
15900;DHT22;8048;50.644;6.184;2023-03-14T17:07:55;2.70;99.90
15900;DHT22;8048;50.644;6.184;2023-03-14T17:10:20;2.70;99.90
15900;DHT22;8048;50.644;6.184;2023-03-14T17:12:46;2.70;99.90
15900;DHT22;8048;50.644;6.184;2023-03-14T17:15:11;2.60;99.90
15900;DHT22;8048;50.644;6.184;2023-03-14T17:17:37;2.70;99.90
15900;DHT22;8048;50.644;6.184;2023-03-14T17:20:04;2.70;99.90
15900;DHT22;8048;50.644;6.184;2023-03-14T17:22:31;2.60;99.90
15900;DHT22;8048;50.644;6.184;2023-03-14T17:24:56;2.60;99.90
15900;DHT22;8048;50.644;6.184;2023-03-14T17:27:22;2.60;99.90
15900;DHT22;8048;50.644;6.184;2023-03-14T17:29:48;2.60;99.90